createdAt,value
2019-01-23T00:02:13.662Z,36.77
2019-01-23T00:04:41.673Z,36.15
2019-01-23T00:07:09.608Z,39.20
2019-01-23T00:09:37.566Z,39.85
2019-01-23T00:12:05.513Z,38.53
2019-01-23T00:14:33.508Z,39.45
2019-01-23T00:17:01.515Z,39.08
2019-01-23T00:19:29.431Z,40.05
2019-01-23T00:21:57.423Z,36.30
2019-01-23T00:24:25.363Z,38.20
2019-01-23T00:26:53.360Z,39.98
2019-01-23T00:29:21.407Z,37.42
2019-01-23T00:31:49.682Z,35.33
2019-01-23T00:34:17.659Z,41.83
2019-01-23T00:36:45.638Z,37.05
2019-01-23T00:39:13.659Z,37.42
2019-01-23T00:41:41.581Z,37.78
2019-01-23T00:44:09.565Z,39.95
2019-01-23T00:46:37.505Z,37.38
2019-01-23T00:49:05.466Z,38.88
2019-01-23T00:51:52.446Z,36.40
2019-01-23T00:54:39.415Z,34.95
2019-01-23T00:57:07.527Z,35.52
2019-01-23T00:59:35.445Z,38.55
2019-01-23T01:02:03.403Z,40.65
2019-01-23T01:04:31.383Z,37.50
2019-01-23T01:06:59.388Z,36.42
2019-01-23T01:09:27.312Z,35.60
2019-01-23T01:11:55.281Z,34.10
2019-01-23T01:14:23.280Z,36.13
2019-01-23T01:16:51.281Z,35.50
2019-01-23T01:19:19.288Z,35.75
2019-01-23T01:22:06.282Z,35.17
2019-01-23T01:24:34.296Z,32.75
2019-01-23T01:27:02.387Z,33.25
2019-01-23T01:29:30.327Z,35.28
2019-01-23T01:31:58.353Z,32.08
2019-01-23T01:34:26.355Z,31.35
2019-01-23T01:36:54.320Z,32.93
2019-01-23T01:39:22.343Z,34.00
2019-01-23T01:41:50.387Z,33.10
2019-01-23T01:44:18.336Z,33.88
2019-01-23T01:46:46.321Z,35.13
2019-01-23T01:49:14.577Z,34.00
2019-01-23T01:51:42.547Z,34.80
2019-01-23T01:54:10.524Z,33.02
2019-01-23T01:56:38.505Z,31.65
2019-01-23T01:59:06.471Z,33.85
2019-01-23T02:01:34.503Z,34.10
2019-01-23T02:04:21.427Z,35.58
2019-01-23T02:06:49.362Z,32.25
2019-01-23T02:09:17.308Z,33.55
2019-01-23T02:11:45.348Z,32.70
2019-01-23T02:14:13.360Z,31.45
2019-01-23T02:16:41.401Z,34.30
2019-01-23T02:19:09.425Z,33.48
2019-01-23T02:21:37.339Z,31.82
2019-01-23T02:24:05.291Z,32.67
2019-01-23T02:26:33.295Z,32.03
2019-01-23T02:29:01.283Z,31.62
2019-01-23T02:31:29.290Z,34.92
2019-01-23T02:33:57.284Z,33.98
2019-01-23T02:36:25.241Z,34.38
2019-01-23T02:38:53.223Z,33.88
2019-01-23T02:41:21.190Z,31.80
2019-01-23T02:43:49.542Z,33.80
2019-01-23T02:46:17.467Z,34.45
2019-01-23T02:48:45.393Z,32.35
2019-01-23T02:51:13.376Z,34.08
2019-01-23T02:53:41.342Z,33.35
2019-01-23T02:56:09.600Z,32.85
2019-01-23T02:58:37.611Z,31.48
2019-01-23T03:01:05.576Z,35.15
2019-01-23T03:03:33.530Z,34.60
2019-01-23T03:06:01.512Z,33.40
2019-01-23T03:08:29.494Z,34.43
2019-01-23T03:10:57.428Z,30.77
2019-01-23T03:13:25.440Z,34.60
2019-01-23T03:15:53.466Z,34.13
2019-01-23T03:18:21.463Z,34.20
2019-01-23T03:20:49.429Z,32.33
2019-01-23T03:23:17.376Z,34.23
2019-01-23T03:25:45.361Z,34.83
2019-01-23T03:28:13.411Z,35.30
2019-01-23T03:30:41.402Z,32.75
2019-01-23T03:33:09.377Z,34.15
2019-01-23T03:35:37.430Z,35.28
2019-01-23T03:38:05.455Z,35.30
2019-01-23T03:40:52.417Z,35.30
2019-01-23T03:43:20.430Z,34.85
2019-01-23T03:45:48.375Z,35.70
2019-01-23T03:48:16.403Z,35.92
2019-01-23T03:50:44.397Z,34.60
2019-01-23T03:53:12.353Z,35.73
2019-01-23T03:55:40.436Z,37.90
2019-01-23T03:58:08.392Z,36.03
2019-01-23T04:00:36.381Z,35.68
2019-01-23T04:03:04.918Z,36.23
2019-01-23T04:05:51.942Z,35.78
2019-01-23T04:08:19.935Z,35.00
2019-01-23T04:10:47.897Z,34.03
2019-01-23T04:13:16.156Z,35.63
2019-01-23T04:15:44.410Z,35.45
2019-01-23T04:18:12.316Z,34.18
2019-01-23T04:20:40.252Z,34.98
2019-01-23T04:23:08.156Z,35.78
2019-01-23T04:25:36.136Z,37.95
2019-01-23T04:28:04.092Z,36.55
2019-01-23T04:30:32.058Z,36.50
2019-01-23T04:33:00.039Z,36.42
2019-01-23T04:35:28.027Z,36.70
2019-01-23T04:37:55.981Z,33.90
2019-01-23T04:40:23.956Z,34.83
2019-01-23T04:42:51.923Z,34.43
2019-01-23T04:45:19.887Z,33.50
2019-01-23T04:47:47.836Z,32.50
2019-01-23T04:53:17.128Z,31.05
2019-01-23T04:55:45.171Z,31.90
2019-01-23T05:00:55.222Z,28.07
2019-01-23T05:03:23.198Z,28.60
2019-01-23T05:05:51.149Z,29.15
2019-01-23T05:08:19.099Z,31.73
2019-01-23T05:10:47.104Z,29.85
2019-01-23T05:13:15.066Z,29.32
2019-01-23T05:15:43.057Z,29.55
2019-01-23T05:18:10.988Z,31.55
2019-01-23T05:20:38.931Z,30.00
2019-01-23T05:23:25.873Z,28.27
2019-01-23T05:25:53.878Z,30.17
2019-01-23T05:28:21.843Z,32.20
2019-01-23T05:30:49.811Z,28.57
2019-01-23T05:33:17.857Z,32.67
2019-01-23T05:38:27.444Z,31.10
2019-01-23T05:40:55.396Z,27.90
2019-01-23T05:43:23.356Z,27.22
2019-01-23T05:45:51.309Z,27.67
2019-01-23T05:48:19.296Z,31.30
2019-01-23T05:50:47.250Z,26.33
2019-01-23T05:53:15.217Z,29.82
2019-01-23T05:56:02.233Z,24.85
2019-01-23T05:58:30.167Z,24.32
2019-01-23T06:00:58.069Z,23.60
2019-01-23T06:03:26.146Z,24.45
2019-01-23T06:05:54.131Z,24.70
2019-01-23T06:08:22.180Z,21.87
2019-01-23T06:10:50.162Z,19.95
2019-01-23T06:13:18.127Z,23.73
2019-01-23T06:16:05.077Z,23.30
2019-01-23T06:18:33.016Z,23.32
2019-01-23T06:21:01.048Z,21.30
2019-01-23T06:23:28.954Z,24.30
2019-01-23T06:25:56.917Z,24.87
2019-01-23T06:28:24.891Z,23.57
2019-01-23T06:30:52.852Z,26.25
2019-01-23T06:33:20.818Z,25.40
2019-01-23T06:35:48.792Z,26.23
2019-01-23T06:38:16.785Z,22.95
2019-01-23T06:40:44.732Z,24.95
2019-01-23T06:43:12.708Z,24.18
2019-01-23T06:45:40.697Z,24.47
2019-01-23T06:48:08.640Z,23.22
2019-01-23T06:50:36.598Z,27.35
2019-01-23T06:53:04.734Z,27.48
2019-01-23T06:55:32.988Z,30.30
2019-01-23T06:58:00.941Z,36.98
2019-01-23T07:00:29.124Z,26.80
2019-01-23T07:02:57.176Z,27.45
2019-01-23T07:05:25.150Z,29.00
2019-01-23T07:07:53.252Z,25.72
2019-01-23T07:10:24.998Z,24.60
2019-01-23T07:16:00.508Z,26.17
2019-01-23T07:18:28.394Z,26.07
2019-01-23T07:20:56.324Z,22.60
2019-01-23T07:23:24.339Z,22.52
2019-01-23T07:25:52.310Z,23.12
2019-01-23T07:28:20.301Z,28.05
2019-01-23T07:30:48.236Z,25.32
2019-01-23T07:33:16.226Z,25.60
2019-01-23T07:35:44.185Z,24.95
2019-01-23T07:38:12.209Z,22.73
2019-01-23T07:40:40.114Z,23.07
2019-01-23T07:43:08.083Z,26.07
2019-01-23T07:45:36.069Z,26.62
2019-01-23T07:48:04.113Z,25.32
2019-01-23T07:50:32.116Z,22.98
2019-01-23T07:53:00.067Z,24.35
2019-01-23T07:55:28.051Z,26.17
2019-01-23T07:57:56.032Z,24.57
2019-01-23T08:00:31.030Z,23.50
2019-01-23T08:02:54.234Z,25.37
2019-01-23T08:05:23.002Z,26.33
2019-01-23T08:07:50.984Z,27.73
2019-01-23T08:10:18.922Z,28.92
2019-01-23T08:12:46.927Z,27.20
2019-01-23T08:15:16.333Z,26.17
2019-01-23T08:17:44.271Z,26.45
2019-01-23T08:20:13.423Z,26.50
2019-01-23T08:22:41.365Z,24.12
2019-01-23T08:25:09.715Z,24.00
2019-01-23T08:27:37.668Z,25.45
2019-01-23T08:30:06.070Z,24.05
2019-01-23T08:32:34.035Z,25.23
2019-01-23T08:35:01.994Z,23.95
2019-01-23T08:37:48.979Z,26.20
2019-01-23T08:40:16.992Z,25.25
2019-01-23T08:42:45.036Z,26.27
2019-01-23T08:45:13.077Z,28.30
2019-01-23T08:47:41.085Z,25.77
2019-01-23T08:50:12.360Z,25.10
2019-01-23T08:52:40.304Z,27.87
2019-01-23T08:55:08.310Z,28.10
2019-01-23T08:57:36.234Z,26.00
2019-01-23T09:00:05.250Z,26.90
2019-01-23T09:02:33.312Z,29.07
2019-01-23T09:05:01.300Z,28.30
2019-01-23T09:07:29.277Z,26.80
2019-01-23T09:09:57.210Z,29.35
2019-01-23T09:12:25.199Z,26.93
2019-01-23T09:14:53.147Z,27.27
2019-01-23T09:17:21.378Z,28.70
2019-01-23T09:19:49.402Z,29.33
2019-01-23T09:22:17.425Z,25.97
2019-01-23T09:24:45.438Z,28.80
2019-01-23T09:27:13.428Z,27.07
2019-01-23T09:29:41.389Z,26.00
2019-01-23T09:32:28.444Z,29.07
2019-01-23T09:35:15.382Z,26.80
2019-01-23T09:38:02.313Z,27.50
2019-01-23T09:40:49.336Z,27.17
2019-01-23T09:43:24.526Z,28.37
2019-01-23T09:46:11.541Z,28.13
2019-01-23T09:48:58.587Z,25.95
2019-01-23T09:51:45.530Z,29.40
2019-01-23T09:54:14.610Z,29.83
2019-01-23T09:56:44.440Z,29.83
2019-01-23T09:59:12.421Z,28.27
2019-01-23T10:01:40.487Z,28.63
2019-01-23T10:04:08.427Z,26.47
2019-01-23T10:06:36.413Z,31.27
2019-01-23T10:14:31.481Z,28.40
2019-01-23T10:16:59.635Z,28.37
2019-01-23T10:19:27.578Z,29.40
2019-01-23T10:21:55.509Z,29.20
2019-01-23T10:24:23.532Z,32.30
2019-01-23T10:26:51.514Z,29.47
2019-01-23T10:29:19.577Z,27.53
2019-01-23T10:31:47.927Z,29.60
2019-01-23T10:34:15.921Z,30.80
2019-01-23T10:36:43.882Z,33.50
2019-01-23T10:39:11.872Z,30.07
2019-01-23T10:41:39.810Z,29.27
2019-01-23T10:44:07.881Z,30.83
2019-01-23T10:46:37.552Z,29.90
2019-01-23T10:49:07.527Z,28.93
2019-01-23T10:51:35.581Z,27.47
2019-01-23T10:54:03.629Z,30.47
2019-01-23T10:59:18.746Z,26.27
2019-01-23T11:02:05.765Z,23.93
2019-01-23T11:04:33.773Z,24.07
2019-01-23T11:07:01.731Z,27.43
2019-01-23T11:09:29.799Z,26.83
2019-01-23T11:11:57.733Z,27.80
2019-01-23T11:14:25.728Z,29.07
2019-01-23T11:16:53.739Z,28.87
2019-01-23T11:19:21.698Z,28.67
2019-01-23T11:21:49.796Z,33.90
2019-01-23T11:24:17.762Z,33.70
2019-01-23T11:26:45.754Z,28.13
2019-01-23T11:29:14.009Z,27.47
2019-01-23T11:31:42.107Z,28.10
2019-01-23T11:34:10.101Z,29.87
2019-01-23T11:36:38.121Z,27.13
2019-01-23T11:39:08.038Z,28.30
2019-01-23T11:44:18.071Z,26.00
2019-01-23T11:46:46.521Z,26.60
2019-01-23T11:49:14.481Z,28.60
2019-01-23T11:51:42.497Z,30.17
2019-01-23T11:54:10.439Z,27.87
2019-01-23T11:59:20.571Z,26.27
2019-01-23T12:01:48.681Z,27.40
2019-01-23T12:04:16.756Z,27.50
2019-01-23T12:06:44.728Z,27.37
2019-01-23T12:09:12.690Z,28.50
2019-01-23T12:11:40.876Z,27.93
2019-01-23T12:14:09.100Z,27.07
2019-01-23T12:16:37.645Z,28.80
2019-01-23T12:19:06.234Z,28.00
2019-01-23T12:21:34.410Z,27.70
2019-01-23T12:24:02.612Z,26.47
2019-01-23T12:26:30.810Z,26.13
2019-01-23T12:28:58.800Z,27.47
2019-01-23T12:31:26.769Z,26.30
2019-01-23T12:33:55.037Z,27.30
2019-01-23T12:36:23.056Z,24.73
2019-01-23T12:38:51.652Z,25.47
2019-01-23T12:41:20.329Z,25.20
2019-01-23T12:43:49.009Z,26.43
2019-01-23T12:46:16.924Z,27.47
2019-01-23T12:51:28.960Z,24.93
2019-01-23T12:53:56.978Z,25.60
2019-01-23T12:56:25.834Z,24.67
2019-01-23T12:58:54.250Z,24.52
2019-01-23T13:01:22.296Z,29.60
2019-01-23T13:03:50.836Z,24.70
2019-01-23T13:06:18.796Z,27.03
2019-01-23T13:08:47.020Z,25.00
2019-01-23T13:11:15.571Z,25.63
2019-01-23T13:16:25.656Z,27.50
2019-01-23T13:18:53.600Z,26.37
2019-01-23T13:21:21.555Z,32.00
2019-01-23T13:26:33.264Z,26.63
2019-01-23T13:29:02.285Z,27.73
2019-01-23T13:31:31.047Z,26.10
2019-01-23T13:33:59.444Z,26.50
2019-01-23T13:36:28.242Z,25.20
2019-01-23T13:38:57.043Z,27.47
2019-01-23T13:41:44.629Z,27.17
2019-01-23T13:44:13.976Z,25.63
2019-01-23T13:46:42.473Z,28.87
2019-01-23T13:49:11.151Z,28.30
2019-01-23T13:51:40.001Z,28.87
2019-01-23T13:54:08.110Z,29.33
2019-01-23T13:56:36.156Z,28.33
2019-01-23T14:01:56.273Z,27.17
2019-01-23T14:04:22.440Z,27.73
2019-01-23T14:06:51.103Z,28.57
2019-01-23T14:09:19.271Z,31.20
2019-01-23T14:11:47.207Z,31.13
2019-01-23T14:14:15.272Z,30.57
2019-01-23T14:16:43.221Z,31.33
2019-01-23T14:19:30.195Z,28.60
2019-01-23T14:21:58.764Z,29.15
2019-01-23T14:24:26.853Z,31.87
2019-01-23T14:26:54.771Z,32.78
2019-01-23T14:29:22.771Z,31.57
2019-01-23T14:31:51.272Z,31.82
2019-01-23T14:34:19.332Z,33.20
2019-01-23T14:36:47.272Z,34.60
2019-01-23T14:39:15.221Z,32.85
2019-01-23T14:41:43.252Z,35.35
2019-01-23T14:44:11.289Z,43.78
2019-01-23T14:46:39.252Z,33.38
2019-01-23T14:49:07.237Z,34.83
2019-01-23T14:51:35.175Z,31.62
2019-01-23T14:54:22.238Z,35.37
2019-01-23T14:56:50.642Z,33.58
2019-01-23T14:59:18.648Z,31.37
2019-01-23T15:01:47.055Z,33.20
2019-01-23T15:04:15.449Z,39.58
2019-01-23T15:06:43.464Z,33.10
2019-01-23T15:09:11.921Z,32.45
2019-01-23T15:11:40.122Z,32.90
2019-01-23T15:14:09.803Z,35.63
2019-01-23T15:16:37.807Z,34.27
2019-01-23T15:19:05.776Z,35.80
2019-01-23T15:21:33.764Z,37.48
2019-01-23T15:24:01.720Z,35.65
2019-01-23T15:26:29.773Z,32.88
2019-01-23T15:28:57.760Z,33.70
2019-01-23T15:31:25.879Z,39.10
2019-01-23T15:33:53.911Z,31.05
2019-01-23T15:36:21.886Z,33.08
2019-01-23T15:38:49.860Z,28.90
2019-01-23T15:41:17.898Z,29.72
2019-01-23T15:43:46.026Z,28.65
2019-01-23T15:46:14.287Z,30.80
2019-01-23T15:48:42.183Z,31.70
2019-01-23T15:51:10.088Z,31.60
2019-01-23T15:56:39.144Z,28.52
2019-01-23T16:01:49.310Z,29.20
2019-01-23T16:04:17.371Z,31.93
2019-01-23T16:06:45.301Z,30.17
2019-01-23T16:09:13.316Z,34.95
2019-01-23T16:11:41.378Z,36.13
2019-01-23T16:14:09.499Z,30.77
2019-01-23T16:16:37.507Z,30.23
2019-01-23T16:19:05.883Z,31.52
2019-01-23T16:21:33.834Z,29.42
2019-01-23T16:24:01.829Z,30.60
2019-01-23T16:26:29.873Z,31.17
2019-01-23T16:28:57.901Z,28.92
2019-01-23T16:31:25.839Z,31.75
2019-01-23T16:33:53.901Z,30.15
2019-01-23T16:36:21.885Z,33.38
2019-01-23T16:38:50.215Z,35.08
2019-01-23T16:41:18.494Z,34.23
2019-01-23T16:43:46.507Z,33.38
2019-01-23T16:46:14.550Z,38.48
2019-01-23T16:48:42.661Z,44.23
2019-01-23T16:51:11.236Z,43.00
2019-01-23T16:53:40.074Z,37.80
2019-01-23T16:56:09.093Z,35.52
2019-01-23T16:58:37.780Z,33.95
2019-01-23T17:01:06.238Z,35.20
2019-01-23T17:03:34.901Z,33.55
2019-01-23T17:06:02.814Z,33.15
2019-01-23T17:08:30.832Z,32.83
2019-01-23T17:10:59.173Z,32.90
2019-01-23T17:13:27.742Z,29.10
2019-01-23T17:15:56.358Z,29.42
2019-01-23T17:18:24.888Z,28.92
2019-01-23T17:20:53.617Z,33.53
2019-01-23T17:23:21.665Z,41.10
2019-01-23T17:25:49.697Z,40.45
2019-01-23T17:28:18.305Z,35.95
2019-01-23T17:30:46.328Z,32.53
2019-01-23T17:33:14.630Z,35.05
2019-01-23T17:35:43.025Z,33.73
2019-01-23T17:38:11.093Z,32.65
2019-01-23T17:40:39.122Z,29.90
2019-01-23T17:43:08.093Z,33.23
2019-01-23T17:45:38.181Z,38.55
2019-01-23T17:48:07.718Z,30.25
2019-01-23T17:50:35.688Z,31.45
2019-01-23T17:53:22.917Z,35.03
2019-01-23T17:55:51.005Z,32.55
2019-01-23T17:58:19.247Z,32.53
2019-01-23T18:01:06.672Z,32.20
2019-01-23T18:03:34.854Z,32.55
2019-01-23T18:06:02.825Z,31.47
2019-01-23T18:08:30.821Z,32.47
2019-01-23T18:11:00.554Z,34.38
2019-01-23T18:13:28.737Z,34.53
2019-01-23T18:16:01.219Z,29.98
2019-01-23T18:18:29.910Z,32.03
2019-01-23T18:20:57.924Z,32.50
2019-01-23T18:23:44.874Z,32.15
2019-01-23T18:26:13.643Z,32.50
2019-01-23T18:28:41.597Z,31.50
2019-01-23T18:31:14.978Z,31.55
2019-01-23T18:34:01.986Z,30.68
2019-01-23T18:36:49.063Z,31.05
2019-01-23T18:39:21.312Z,33.20
2019-01-23T18:41:52.667Z,33.58
2019-01-23T18:44:39.609Z,32.83
2019-01-23T18:47:35.315Z,32.30
2019-01-23T18:50:22.318Z,31.82
2019-01-23T18:58:13.967Z,31.97
2019-01-23T19:01:01.001Z,33.30
2019-01-23T19:03:28.971Z,30.62
2019-01-23T19:06:16.036Z,31.93
2019-01-23T19:08:44.099Z,31.62
2019-01-23T19:11:12.096Z,31.75
2019-01-23T19:13:40.037Z,30.27
2019-01-23T19:19:10.552Z,33.38
2019-01-23T19:21:38.562Z,27.65
2019-01-23T19:24:06.605Z,30.02
2019-01-23T19:26:34.963Z,29.20
2019-01-23T19:29:02.876Z,31.37
2019-01-23T19:31:30.849Z,34.45
2019-01-23T19:33:58.945Z,37.50
2019-01-23T19:36:26.946Z,31.07
2019-01-23T19:38:54.839Z,31.68
2019-01-23T19:41:22.962Z,30.90
2019-01-23T19:43:51.012Z,32.35
2019-01-23T19:46:19.172Z,33.20
2019-01-23T19:48:47.219Z,30.30
2019-01-23T19:51:15.313Z,32.35
2019-01-23T19:53:43.417Z,55.10
2019-01-23T19:56:11.360Z,57.50
2019-01-23T19:58:39.337Z,55.03
2019-01-23T20:01:07.304Z,50.20
2019-01-23T20:03:35.271Z,39.70
2019-01-23T20:06:03.255Z,32.03
2019-01-23T20:08:31.296Z,32.05
2019-01-23T20:10:59.356Z,38.95
2019-01-23T20:13:27.340Z,42.08
2019-01-23T20:15:55.323Z,35.20
2019-01-23T20:18:23.228Z,32.03
2019-01-23T20:20:51.175Z,38.95
2019-01-23T20:23:19.222Z,37.20
2019-01-23T20:25:47.200Z,37.05
2019-01-23T20:28:15.216Z,37.17
2019-01-23T20:30:43.957Z,33.92
2019-01-23T20:33:11.949Z,33.67
2019-01-23T20:35:58.894Z,34.98
2019-01-23T20:38:45.832Z,35.98
2019-01-23T20:41:13.777Z,32.00
2019-01-23T20:43:41.797Z,33.55
2019-01-23T20:46:09.747Z,35.20
2019-01-23T20:48:37.828Z,35.25
2019-01-23T20:51:05.920Z,36.00
2019-01-23T20:53:33.885Z,37.15
2019-01-23T20:56:01.819Z,39.00
2019-01-23T20:58:29.915Z,37.80
2019-01-23T21:00:57.990Z,34.63
2019-01-23T21:06:08.413Z,32.90
2019-01-23T21:08:37.379Z,31.87
2019-01-23T21:11:24.469Z,32.88
2019-01-23T21:13:52.442Z,32.30
2019-01-23T21:16:20.422Z,30.92
2019-01-23T21:18:48.474Z,31.97
2019-01-23T21:21:16.449Z,31.97
2019-01-23T21:23:44.513Z,28.47
2019-01-23T21:26:12.498Z,30.55
2019-01-23T21:28:40.528Z,36.85
2019-01-23T21:31:08.551Z,34.73
2019-01-23T21:33:42.069Z,36.38
2019-01-23T21:36:06.298Z,34.80
2019-01-23T21:38:34.285Z,37.48
2019-01-23T21:41:02.241Z,36.53
2019-01-23T21:43:30.236Z,35.20
2019-01-23T21:45:58.198Z,32.00
2019-01-23T21:48:26.152Z,40.65
2019-01-23T21:50:54.100Z,32.70
2019-01-23T21:53:22.098Z,41.55
2019-01-23T21:55:50.064Z,33.80
2019-01-23T21:58:18.114Z,32.63
2019-01-23T22:00:47.264Z,32.60
2019-01-23T22:03:34.208Z,33.85
2019-01-23T22:06:02.243Z,29.90
2019-01-23T22:08:30.166Z,31.27
2019-01-23T22:10:58.169Z,35.08
2019-01-23T22:13:26.209Z,32.45
2019-01-23T22:15:54.203Z,32.90
2019-01-23T22:18:22.305Z,33.20
2019-01-23T22:20:50.342Z,34.48
2019-01-23T22:23:18.333Z,32.80
2019-01-23T22:25:46.299Z,34.55
2019-01-23T22:28:14.382Z,35.78
2019-01-23T22:30:42.327Z,34.78
2019-01-23T22:33:10.333Z,35.00
2019-01-23T22:35:38.271Z,32.38
2019-01-23T22:38:06.553Z,36.03
2019-01-23T22:40:34.493Z,34.80
2019-01-23T22:43:02.562Z,33.30
2019-01-23T22:45:30.661Z,34.10
2019-01-23T22:47:58.697Z,32.23
2019-01-23T22:50:27.296Z,33.60
2019-01-23T22:52:55.379Z,36.28
2019-01-23T22:55:23.451Z,40.90
2019-01-23T22:57:51.391Z,41.50
2019-01-23T23:00:39.431Z,42.25
2019-01-23T23:03:09.382Z,40.35
2019-01-23T23:05:37.312Z,37.80
2019-01-23T23:08:05.499Z,37.53
2019-01-23T23:10:33.452Z,35.98
2019-01-23T23:13:01.420Z,34.23
2019-01-23T23:15:29.416Z,38.35
2019-01-23T23:17:57.360Z,40.52
2019-01-23T23:20:25.355Z,34.73
2019-01-23T23:22:53.293Z,38.58
2019-01-23T23:25:21.282Z,37.70
2019-01-23T23:27:49.250Z,38.85
2019-01-23T23:30:17.280Z,41.50
2019-01-23T23:32:45.310Z,38.67
2019-01-23T23:35:13.363Z,39.42
2019-01-23T23:37:41.443Z,37.28
2019-01-23T23:40:09.634Z,37.23
2019-01-23T23:42:37.586Z,37.55
2019-01-23T23:45:06.379Z,40.30
2019-01-23T23:47:34.388Z,39.25
2019-01-23T23:50:02.296Z,36.73
2019-01-23T23:52:30.270Z,34.85
2019-01-23T23:54:58.282Z,37.80
2019-01-23T23:57:26.197Z,35.00
